Time;durP1;ratioP1;P1;durP2;ratioP2;P2;SDS_P1;SDS_P2;PMS_P1;PMS_P2;Temp;Humidity;BMP_temperature;BMP_pressure;BME280_temperature;BME280_humidity;BME280_pressure;Samples;Min_cycle;Max_cycle;Signal;HPM_P1;HPM_P2
2024/03/03 00:02:11;;;;;;;6.63;2.80;;;11.90;99.90;;;;;;4986882;28;20495;-75
2024/03/03 00:04:37;;;;;;;6.28;2.78;;;11.90;99.90;;;;;;4987979;28;20026;-76
2024/03/03 00:07:03;;;;;;;6.10;3.20;;;11.90;99.90;;;;;;4988416;28;20471;-75
2024/03/03 00:09:29;;;;;;;5.47;2.97;;;11.90;99.90;;;;;;4987915;28;20026;-75
2024/03/03 00:11:54;;;;;;;5.80;3.00;;;11.90;99.90;;;;;;4988062;28;20037;-75
2024/03/03 00:14:21;;;;;;;5.75;3.35;;;11.90;99.90;;;;;;4987877;28;20030;-75
2024/03/03 00:16:47;;;;;;;6.22;3.38;;;11.90;99.90;;;;;;4987764;28;20037;-74
2024/03/03 00:19:12;;;;;;;6.13;3.20;;;11.90;99.90;;;;;;4987103;28;20030;-75
2024/03/03 00:21:38;;;;;;;4.20;2.80;;;11.90;99.90;;;;;;4986692;28;20018;-75
2024/03/03 00:24:05;;;;;;;5.05;3.05;;;11.90;99.90;;;;;;4987442;28;20032;-74
2024/03/03 00:26:33;;;;;;;4.45;2.80;;;11.90;99.90;;;;;;4987363;28;20662;-75
2024/03/03 00:29:04;;;;;;;4.70;2.90;;;11.90;99.90;;;;;;4973995;28;20801;-75
2024/03/03 00:31:29;;;;;;;6.30;2.95;;;11.90;99.90;;;;;;4970514;28;20026;-74
2024/03/03 00:33:55;;;;;;;5.78;2.83;;;11.90;99.90;;;;;;4969575;28;20045;-75
2024/03/03 00:36:21;;;;;;;6.40;3.30;;;11.90;99.90;;;;;;4988001;28;20464;-75
2024/03/03 00:38:47;;;;;;;8.15;2.92;;;11.90;99.90;;;;;;4970416;28;20026;-75
2024/03/03 00:41:13;;;;;;;8.52;3.50;;;11.90;99.90;;;;;;4987770;28;20032;-75
2024/03/03 00:43:39;;;;;;;5.38;3.35;;;11.80;99.90;;;;;;4987766;28;20026;-75
2024/03/03 00:46:05;;;;;;;5.15;3.00;;;11.80;99.90;;;;;;4987504;28;20019;-74
2024/03/03 00:48:31;;;;;;;5.43;3.45;;;11.70;99.90;;;;;;4988154;28;20064;-75
2024/03/03 00:50:56;;;;;;;6.07;3.33;;;11.70;99.90;;;;;;4969861;28;20475;-75
2024/03/03 00:53:22;;;;;;;6.70;3.80;;;11.70;99.90;;;;;;4987564;28;20584;-75
2024/03/03 00:55:51;;;;;;;6.45;3.65;;;11.70;99.90;;;;;;4986929;28;20132;-76
2024/03/03 00:58:17;;;;;;;5.10;3.38;;;11.60;99.90;;;;;;4986953;28;20030;-75
2024/03/03 01:00:44;;;;;;;6.75;3.60;;;11.60;99.90;;;;;;4969844;28;20035;-75
2024/03/03 01:03:10;;;;;;;5.22;3.47;;;11.60;99.90;;;;;;4987015;28;20030;-75
2024/03/03 01:05:36;;;;;;;6.82;4.03;;;11.60;99.90;;;;;;4987303;28;20037;-75
2024/03/03 01:08:02;;;;;;;7.03;4.32;;;11.60;99.90;;;;;;4986931;28;20050;-75
2024/03/03 01:10:28;;;;;;;6.95;4.30;;;11.60;99.90;;;;;;4981278;28;20026;-75
2024/03/03 01:12:54;;;;;;;6.28;4.00;;;11.60;99.90;;;;;;4987078;28;20084;-75
2024/03/03 01:15:19;;;;;;;6.97;4.53;;;11.50;99.90;;;;;;4968976;28;20030;-75
2024/03/03 01:17:45;;;;;;;8.75;4.75;;;11.50;99.90;;;;;;4987262;28;20377;-75
2024/03/03 01:20:13;;;;;;;7.00;4.35;;;11.50;99.90;;;;;;4988661;28;20049;-73
2024/03/03 01:22:39;;;;;;;9.55;4.68;;;11.50;99.90;;;;;;4987125;28;20213;-75
2024/03/03 01:25:06;;;;;;;7.57;3.97;;;11.50;99.90;;;;;;4986505;28;20049;-74
2024/03/03 01:27:33;;;;;;;7.22;4.57;;;11.50;99.90;;;;;;4986996;28;20030;-75
2024/03/03 01:29:59;;;;;;;8.40;4.57;;;11.50;99.90;;;;;;4982384;28;20416;-75
2024/03/03 01:32:24;;;;;;;7.97;4.85;;;11.50;99.90;;;;;;5000603;28;20054;-74
2024/03/03 01:34:51;;;;;;;6.93;4.70;;;11.50;99.90;;;;;;4986195;28;20054;-75
2024/03/03 01:37:20;;;;;;;6.88;4.88;;;11.50;99.90;;;;;;4986876;28;20018;-75
2024/03/03 01:39:48;;;;;;;6.35;4.53;;;11.50;99.90;;;;;;4968691;28;20093;-75
2024/03/03 01:42:14;;;;;;;9.75;5.10;;;11.40;99.90;;;;;;4986542;28;20403;-75
2024/03/03 01:44:42;;;;;;;9.60;5.00;;;11.50;99.90;;;;;;4986526;28;20018;-75
2024/03/03 01:47:09;;;;;;;7.18;4.78;;;11.50;99.90;;;;;;4986896;28;20085;-75
2024/03/03 01:49:37;;;;;;;8.52;4.80;;;11.40;99.90;;;;;;4986502;28;20026;-75
2024/03/03 01:52:05;;;;;;;7.30;5.10;;;11.50;99.90;;;;;;4986446;28;20034;-74
2024/03/03 01:54:34;;;;;;;8.57;5.68;;;11.50;99.90;;;;;;4986570;28;20022;-75
2024/03/03 01:57:02;;;;;;;7.93;5.07;;;11.50;99.90;;;;;;4986471;28;20077;-75
2024/03/03 01:59:28;;;;;;;7.50;5.00;;;11.40;99.90;;;;;;4986023;28;20077;-75
2024/03/03 02:01:56;;;;;;;8.77;5.68;;;11.40;99.90;;;;;;4986839;28;20018;-75
2024/03/03 02:04:23;;;;;;;9.45;5.68;;;11.40;99.90;;;;;;4986174;28;20023;-75
2024/03/03 02:06:51;;;;;;;7.18;4.97;;;11.30;99.90;;;;;;4986280;28;20609;-75
2024/03/03 02:09:17;;;;;;;9.05;5.25;;;11.40;99.90;;;;;;4986493;28;20027;-75
2024/03/03 02:11:43;;;;;;;9.73;5.45;;;11.30;99.90;;;;;;4986634;28;20480;-75
2024/03/03 02:14:08;;;;;;;8.30;5.72;;;11.30;99.90;;;;;;4986079;28;20033;-75
2024/03/03 02:16:34;;;;;;;7.38;4.82;;;11.30;99.90;;;;;;4986391;28;20033;-75
2024/03/03 02:19:00;;;;;;;7.60;4.18;;;11.30;99.90;;;;;;4968198;28;20023;-75
2024/03/03 02:21:25;;;;;;;7.40;4.93;;;11.20;99.90;;;;;;4986424;28;20081;-75
2024/03/03 02:23:52;;;;;;;8.38;5.53;;;11.20;99.90;;;;;;4985523;28;20038;-75
2024/03/03 02:26:21;;;;;;;8.65;4.43;;;11.20;99.90;;;;;;4986245;28;20081;-74
2024/03/03 02:28:49;;;;;;;8.65;4.82;;;11.20;99.90;;;;;;4983354;28;20034;-74
2024/03/03 02:31:15;;;;;;;10.07;5.30;;;11.20;99.90;;;;;;4985953;28;20488;-75
2024/03/03 02:33:40;;;;;;;7.90;4.90;;;11.20;99.90;;;;;;4985500;28;20057;-74
2024/03/03 02:36:06;;;;;;;8.48;4.88;;;11.20;99.90;;;;;;4986353;28;20030;-74
2024/03/03 02:38:32;;;;;;;7.65;5.25;;;11.20;99.90;;;;;;4985657;28;20053;-74
2024/03/03 02:40:57;;;;;;;7.97;5.03;;;11.20;99.90;;;;;;4969777;28;20026;-74
2024/03/03 02:43:23;;;;;;;8.38;5.07;;;11.20;99.90;;;;;;4990166;28;20072;-74
2024/03/03 02:45:49;;;;;;;7.82;4.88;;;11.20;99.90;;;;;;4989425;28;20029;-74
2024/03/03 02:48:14;;;;;;;9.30;5.60;;;11.20;99.90;;;;;;4989813;28;20503;-74
2024/03/03 02:50:40;;;;;;;8.48;5.07;;;11.20;99.90;;;;;;4978839;28;20141;-74
2024/03/03 02:53:06;;;;;;;9.63;5.18;;;11.20;99.90;;;;;;4989846;28;20064;-74
2024/03/03 02:55:31;;;;;;;9.77;5.60;;;11.10;99.90;;;;;;4989323;28;20046;-74
2024/03/03 02:57:57;;;;;;;10.18;5.85;;;11.10;99.90;;;;;;4991687;28;20025;-74
2024/03/03 03:00:22;;;;;;;9.77;6.00;;;11.10;99.90;;;;;;5008990;28;20054;-75
2024/03/03 03:02:48;;;;;;;9.70;5.97;;;11.00;99.90;;;;;;4995084;28;20788;-75
2024/03/03 03:05:14;;;;;;;9.18;5.78;;;11.00;99.90;;;;;;4989102;28;20030;-75
2024/03/03 03:07:39;;;;;;;9.80;6.32;;;11.00;99.90;;;;;;4979294;28;20030;-75
2024/03/03 03:10:06;;;;;;;13.10;6.22;;;11.00;99.90;;;;;;4988533;28;20030;-75
2024/03/03 03:12:31;;;;;;;11.13;6.22;;;10.90;99.90;;;;;;4989638;28;20109;-75
2024/03/03 03:14:57;;;;;;;10.07;6.18;;;10.90;99.90;;;;;;4988678;28;20137;-77
2024/03/03 03:17:23;;;;;;;8.88;6.03;;;10.90;99.90;;;;;;4989178;28;20058;-75
2024/03/03 03:19:48;;;;;;;8.65;5.90;;;10.90;99.90;;;;;;4988515;28;20045;-75
2024/03/03 03:22:15;;;;;;;8.35;6.05;;;10.80;99.90;;;;;;4989189;28;20453;-75
2024/03/03 03:24:41;;;;;;;9.63;6.07;;;10.80;99.90;;;;;;4988965;28;20037;-75
2024/03/03 03:27:07;;;;;;;10.73;6.20;;;10.80;99.90;;;;;;4988778;28;20022;-75
2024/03/03 03:29:32;;;;;;;9.25;6.20;;;10.80;99.90;;;;;;4989154;28;20022;-76
2024/03/03 03:31:58;;;;;;;7.78;5.75;;;10.80;99.90;;;;;;4974351;28;20550;-75
2024/03/03 03:34:23;;;;;;;9.98;5.65;;;10.80;99.90;;;;;;4988467;28;20046;-75
2024/03/03 03:36:49;;;;;;;10.13;6.00;;;10.70;99.90;;;;;;4988710;28;20508;-75
2024/03/03 03:39:15;;;;;;;8.82;5.45;;;10.70;99.90;;;;;;4988181;28;20026;-75
2024/03/03 03:41:48;;;;;;;7.28;4.78;;;10.70;99.90;;;;;;4976379;28;20061;-75
2024/03/03 03:44:15;;;;;;;7.18;4.80;;;10.60;99.90;;;;;;4988280;28;20129;-75
2024/03/03 03:46:41;;;;;;;8.00;4.95;;;10.60;99.90;;;;;;4988875;28;20128;-75
2024/03/03 03:49:11;;;;;;;7.15;5.10;;;10.60;99.90;;;;;;4988259;28;20023;-75
2024/03/03 03:51:38;;;;;;;7.40;4.80;;;10.60;99.90;;;;;;4975868;28;20089;-75
2024/03/03 03:54:05;;;;;;;7.72;4.57;;;10.50;99.90;;;;;;4995929;28;20054;-75
2024/03/03 03:56:31;;;;;;;9.18;4.88;;;10.50;99.90;;;;;;4988600;28;20026;-75
2024/03/03 03:59:00;;;;;;;6.80;4.43;;;10.50;99.90;;;;;;4970682;28;20164;-75
2024/03/03 04:01:27;;;;;;;6.90;4.63;;;10.50;99.90;;;;;;4988513;28;20109;-75
2024/03/03 04:03:55;;;;;;;7.47;4.57;;;10.50;99.90;;;;;;4988565;28;20112;-75
2024/03/03 04:06:21;;;;;;;6.72;4.13;;;10.50;99.90;;;;;;4971795;28;20041;-75
2024/03/03 04:08:47;;;;;;;7.65;4.53;;;10.50;99.90;;;;;;4989359;28;20026;-75
2024/03/03 04:11:13;;;;;;;6.60;4.57;;;10.50;99.90;;;;;;4988521;28;20022;-75
2024/03/03 04:13:38;;;;;;;8.30;5.05;;;10.50;99.90;;;;;;4968935;28;20034;-76
2024/03/03 04:16:07;;;;;;;7.47;4.80;;;10.50;99.90;;;;;;4987752;28;20030;-75
2024/03/03 04:18:33;;;;;;;7.10;4.47;;;10.40;99.90;;;;;;4988146;28;20030;-75
2024/03/03 04:21:00;;;;;;;6.03;4.20;;;10.40;99.90;;;;;;4987655;28;20022;-75
2024/03/03 04:23:25;;;;;;;7.60;4.80;;;10.40;99.90;;;;;;4988184;28;20023;-75
2024/03/03 04:25:51;;;;;;;8.60;5.22;;;10.30;99.90;;;;;;4987329;28;20030;-75
2024/03/03 04:28:17;;;;;;;6.13;4.22;;;10.30;99.90;;;;;;4987923;28;20117;-75
2024/03/03 04:30:42;;;;;;;7.72;4.53;;;10.30;99.90;;;;;;4969977;28;20117;-76
2024/03/03 04:33:08;;;;;;;7.85;5.05;;;10.30;99.90;;;;;;4987482;28;20061;-74
2024/03/03 04:35:35;;;;;;;7.93;4.57;;;10.20;99.90;;;;;;4987929;28;20545;-75
2024/03/03 04:38:01;;;;;;;7.88;4.75;;;10.20;99.90;;;;;;4988445;28;20026;-75
2024/03/03 04:40:27;;;;;;;6.43;4.57;;;10.10;99.90;;;;;;4987690;28;20513;-74
2024/03/03 04:42:52;;;;;;;6.50;4.53;;;10.10;99.90;;;;;;4987908;28;20023;-75
2024/03/03 04:45:18;;;;;;;6.90;4.40;;;10.10;99.90;;;;;;4987895;28;20033;-75
2024/03/03 04:47:43;;;;;;;8.10;5.50;;;10.10;99.90;;;;;;4988134;28;20026;-75
2024/03/03 04:50:09;;;;;;;7.43;4.90;;;10.00;99.90;;;;;;4997452;28;20026;-74
2024/03/03 04:52:36;;;;;;;7.50;4.95;;;10.00;99.90;;;;;;4988374;28;20364;-75
2024/03/03 04:55:02;;;;;;;6.70;4.57;;;10.00;99.90;;;;;;4986842;28;20034;-75
2024/03/03 04:57:28;;;;;;;8.10;4.88;;;9.90;99.90;;;;;;4970265;28;20496;-75
2024/03/03 04:59:53;;;;;;;10.00;5.15;;;9.90;99.90;;;;;;4986401;28;20030;-75
2024/03/03 05:02:19;;;;;;;7.75;4.95;;;9.90;99.90;;;;;;4987738;28;20069;-75
2024/03/03 05:04:45;;;;;;;7.32;4.78;;;10.00;99.90;;;;;;4986595;28;20030;-75
2024/03/03 05:07:11;;;;;;;6.97;4.82;;;9.90;99.90;;;;;;4987166;28;20514;-75
2024/03/03 05:09:39;;;;;;;7.60;4.63;;;9.90;99.90;;;;;;4986950;28;20074;-75
2024/03/03 05:12:08;;;;;;;7.53;4.97;;;9.90;99.90;;;;;;4986632;28;20185;-75
2024/03/03 05:14:34;;;;;;;7.68;5.05;;;9.90;99.90;;;;;;4986494;28;20077;-75
2024/03/03 05:17:01;;;;;;;9.38;5.03;;;9.90;99.90;;;;;;4987225;28;20030;-76
2024/03/03 05:19:27;;;;;;;8.05;3.88;;;9.90;99.90;;;;;;4985113;28;20026;-75
2024/03/03 05:21:53;;;;;;;7.75;5.20;;;9.90;99.90;;;;;;4989132;28;20037;-75
2024/03/03 05:24:18;;;;;;;7.13;4.68;;;9.90;99.90;;;;;;4987134;28;20022;-75
2024/03/03 05:26:44;;;;;;;7.78;4.88;;;9.80;99.90;;;;;;4991718;28;20026;-75
2024/03/03 05:29:10;;;;;;;8.43;5.13;;;9.80;99.90;;;;;;4986722;28;20391;-74
2024/03/03 05:31:41;;;;;;;7.03;4.57;;;9.80;99.90;;;;;;4987146;28;20022;-75
2024/03/03 05:34:15;;;;;;;8.38;4.97;;;9.80;99.90;;;;;;4979094;28;20500;-75
2024/03/03 05:36:44;;;;;;;9.20;5.18;;;9.80;99.90;;;;;;4986932;28;20543;-75
2024/03/03 05:39:11;;;;;;;6.82;4.60;;;9.70;99.90;;;;;;4986369;28;20019;-75
2024/03/03 05:41:37;;;;;;;8.15;4.40;;;9.70;99.90;;;;;;4969519;28;20022;-75
2024/03/03 05:44:04;;;;;;;8.70;4.95;;;9.80;99.90;;;;;;4986205;28;20033;-73
2024/03/03 05:46:30;;;;;;;6.68;4.88;;;9.70;99.90;;;;;;4986389;28;20392;-74
2024/03/03 05:48:55;;;;;;;8.77;4.43;;;9.70;99.90;;;;;;4968881;28;20395;-73
2024/03/03 05:51:22;;;;;;;7.82;5.13;;;9.70;99.90;;;;;;4982203;28;20022;-74
2024/03/03 05:53:47;;;;;;;7.30;4.75;;;9.70;99.90;;;;;;4986894;28;20037;-74
2024/03/03 05:56:14;;;;;;;8.00;5.18;;;9.70;99.90;;;;;;4986047;28;20030;-74
2024/03/03 05:58:40;;;;;;;8.98;4.78;;;9.70;99.90;;;;;;4986604;28;20487;-76
2024/03/03 06:01:05;;;;;;;8.35;5.07;;;9.70;99.90;;;;;;4986117;28;20030;-77
2024/03/03 06:03:31;;;;;;;9.75;5.15;;;9.70;99.90;;;;;;4986843;28;20019;-77
2024/03/03 06:05:56;;;;;;;7.68;5.38;;;9.70;99.90;;;;;;4985974;28;20107;-76
2024/03/03 06:08:22;;;;;;;7.97;5.53;;;9.70;99.90;;;;;;4968798;28;20033;-73
2024/03/03 06:10:48;;;;;;;7.93;5.03;;;9.70;99.90;;;;;;4985757;28;20427;-76
2024/03/03 06:13:13;;;;;;;8.07;5.30;;;9.80;99.90;;;;;;4986547;28;20086;-77
2024/03/03 06:15:39;;;;;;;7.60;5.05;;;9.80;99.90;;;;;;4987056;28;20378;-76
2024/03/03 06:18:05;;;;;;;7.75;5.32;;;9.80;99.90;;;;;;4990096;28;20110;-74
2024/03/03 06:20:31;;;;;;;7.35;4.63;;;9.80;99.90;;;;;;4990051;28;20379;-75
2024/03/03 06:22:57;;;;;;;8.02;4.95;;;9.80;99.90;;;;;;4990091;28;20026;-75
2024/03/03 06:25:23;;;;;;;7.45;4.95;;;9.80;99.90;;;;;;4989676;28;20057;-75
2024/03/03 06:27:48;;;;;;;8.35;5.95;;;9.80;99.90;;;;;;4990078;28;20030;-75
2024/03/03 06:30:14;;;;;;;8.07;5.18;;;9.90;99.90;;;;;;4989322;28;20030;-75
2024/03/03 06:32:40;;;;;;;8.77;5.43;;;9.90;99.90;;;;;;4989821;28;20033;-75
2024/03/03 06:35:10;;;;;;;9.20;5.57;;;9.90;99.90;;;;;;4989023;28;20030;-75
2024/03/03 06:37:36;;;;;;;8.05;4.82;;;9.90;99.90;;;;;;4971603;28;20064;-75
2024/03/03 06:40:03;;;;;;;10.88;5.72;;;9.90;99.90;;;;;;4989438;28;20073;-75
2024/03/03 06:42:29;;;;;;;7.97;5.68;;;9.90;99.90;;;;;;4975896;28;20033;-75
2024/03/03 06:44:55;;;;;;;9.32;5.40;;;9.90;99.90;;;;;;4989434;28;20110;-75
2024/03/03 06:47:21;;;;;;;9.10;5.82;;;9.90;99.90;;;;;;4972404;28;20125;-75
2024/03/03 06:49:46;;;;;;;11.05;6.55;;;9.90;99.90;;;;;;4989235;28;20069;-75
2024/03/03 06:52:12;;;;;;;12.18;5.93;;;9.90;99.90;;;;;;4989997;28;20476;-75
2024/03/03 06:54:38;;;;;;;8.35;5.63;;;9.90;99.90;;;;;;4991269;28;20042;-74
2024/03/03 06:57:03;;;;;;;8.68;5.78;;;9.90;99.90;;;;;;5000179;28;20018;-74
2024/03/03 06:59:30;;;;;;;7.78;5.35;;;9.90;99.90;;;;;;4989207;28;20030;-74
2024/03/03 07:01:55;;;;;;;8.88;5.63;;;9.90;99.90;;;;;;4989630;28;20113;-74
2024/03/03 07:04:24;;;;;;;7.90;5.20;;;9.90;99.90;;;;;;4989334;28;20109;-74
2024/03/03 07:06:51;;;;;;;8.48;5.68;;;10.00;99.90;;;;;;4986083;28;20026;-74
2024/03/03 07:09:22;;;;;;;7.78;5.50;;;10.00;99.90;;;;;;4989569;28;20543;-74
2024/03/03 07:11:50;;;;;;;9.50;5.97;;;10.00;99.90;;;;;;4989320;28;20081;-75
2024/03/03 07:14:17;;;;;;;8.98;5.75;;;9.90;99.90;;;;;;4989129;28;20024;-74
2024/03/03 07:16:43;;;;;;;11.43;5.80;;;9.90;99.90;;;;;;4988604;28;20014;-73
2024/03/03 07:19:08;;;;;;;9.88;5.88;;;9.90;99.90;;;;;;4999535;28;20022;-74
2024/03/03 07:21:34;;;;;;;8.07;5.63;;;9.90;99.90;;;;;;4988463;28;20034;-74
2024/03/03 07:24:00;;;;;;;8.68;5.75;;;9.90;99.90;;;;;;4978160;28;20026;-74
2024/03/03 07:26:26;;;;;;;8.60;5.20;;;9.90;99.90;;;;;;4995673;28;20034;-74
2024/03/03 07:28:52;;;;;;;7.82;5.53;;;9.90;99.90;;;;;;4989196;28;20030;-74
2024/03/03 07:31:18;;;;;;;10.80;6.03;;;9.90;99.90;;;;;;4972268;28;20085;-73
2024/03/03 07:33:43;;;;;;;8.00;5.38;;;9.90;99.90;;;;;;4987297;28;20156;-74
2024/03/03 07:36:09;;;;;;;8.65;6.05;;;9.90;99.90;;;;;;4983052;28;20563;-74
2024/03/03 07:38:35;;;;;;;8.63;5.68;;;9.90;99.90;;;;;;4971292;28;20081;-74
2024/03/03 07:41:01;;;;;;;9.13;5.78;;;9.90;99.90;;;;;;4988100;28;20023;-74
2024/03/03 07:43:28;;;;;;;7.63;5.38;;;9.90;99.90;;;;;;4988713;28;20045;-74
2024/03/03 07:45:53;;;;;;;11.52;6.22;;;9.90;99.90;;;;;;4988021;28;20026;-74
2024/03/03 07:48:19;;;;;;;12.35;6.40;;;10.00;99.90;;;;;;4985719;28;20022;-74
2024/03/03 07:50:45;;;;;;;9.30;5.85;;;9.90;99.90;;;;;;4964575;28;20019;-74
2024/03/03 07:53:11;;;;;;;10.00;6.55;;;10.00;99.90;;;;;;4988642;28;20160;-74
2024/03/03 07:55:37;;;;;;;13.05;7.18;;;10.00;99.90;;;;;;4984942;28;20062;-74
2024/03/03 07:58:03;;;;;;;14.75;6.40;;;10.00;99.90;;;;;;4986397;28;20476;-74
2024/03/03 08:00:33;;;;;;;10.50;6.57;;;10.00;99.90;;;;;;4988231;28;20022;-73
2024/03/03 08:03:04;;;;;;;11.15;6.75;;;10.00;99.90;;;;;;4970743;28;20018;-74
2024/03/03 08:05:32;;;;;;;10.57;6.22;;;10.10;99.90;;;;;;4979835;28;20100;-74
2024/03/03 08:07:58;;;;;;;11.93;6.85;;;10.10;99.90;;;;;;4978451;28;20523;-74
2024/03/03 08:10:24;;;;;;;11.70;6.72;;;10.20;99.90;;;;;;4987477;28;20038;-74
2024/03/03 08:12:50;;;;;;;11.32;6.90;;;10.20;99.90;;;;;;4988142;28;20069;-75
2024/03/03 08:15:15;;;;;;;9.35;6.35;;;10.30;99.90;;;;;;4984986;28;20085;-75
2024/03/03 08:17:42;;;;;;;12.27;6.47;;;10.40;99.90;;;;;;4961569;28;20824;-75
2024/03/03 08:20:10;;;;;;;10.50;7.15;;;10.40;99.90;;;;;;4986804;28;20030;-74
2024/03/03 08:22:37;;;;;;;12.80;7.40;;;10.50;99.90;;;;;;4988028;28;20034;-75
2024/03/03 08:25:05;;;;;;;9.23;6.28;;;10.50;99.90;;;;;;4987080;28;20045;-75
2024/03/03 08:27:31;;;;;;;12.77;6.65;;;10.50;99.90;;;;;;4976723;28;20442;-75
2024/03/03 08:29:57;;;;;;;10.45;6.38;;;10.50;99.90;;;;;;4972893;28;20023;-75
2024/03/03 08:32:23;;;;;;;8.95;6.30;;;10.60;99.90;;;;;;4970622;28;20123;-74
2024/03/03 08:34:49;;;;;;;8.32;5.88;;;10.60;99.90;;;;;;4976193;28;20140;-75
2024/03/03 08:37:15;;;;;;;8.95;6.03;;;10.60;99.90;;;;;;4973289;28;20480;-75
2024/03/03 08:39:41;;;;;;;9.52;6.20;;;10.70;99.90;;;;;;4978911;28;20034;-75
2024/03/03 08:42:07;;;;;;;12.15;6.57;;;10.70;99.90;;;;;;4977872;28;20086;-75
2024/03/03 08:44:32;;;;;;;9.88;6.65;;;10.80;99.90;;;;;;4976131;28;20027;-75
2024/03/03 08:46:58;;;;;;;9.88;6.55;;;10.90;99.90;;;;;;4975491;28;20066;-75
2024/03/03 08:49:25;;;;;;;11.00;6.85;;;11.00;99.90;;;;;;4974088;28;20092;-74
2024/03/03 08:51:50;;;;;;;12.15;6.88;;;11.10;99.90;;;;;;4981232;28;20030;-75
2024/03/03 08:54:16;;;;;;;12.30;7.32;;;11.10;99.90;;;;;;4982899;28;20021;-74
2024/03/03 08:56:42;;;;;;;9.68;6.97;;;11.20;99.90;;;;;;4986918;28;20015;-74
2024/03/03 08:59:08;;;;;;;11.48;7.13;;;11.20;99.90;;;;;;4987075;28;20022;-74
2024/03/03 09:01:36;;;;;;;9.43;6.60;;;11.30;99.90;;;;;;4986466;28;20022;-74
2024/03/03 09:04:03;;;;;;;10.55;6.75;;;11.30;99.90;;;;;;4969534;28;20081;-74
2024/03/03 09:06:28;;;;;;;10.40;6.90;;;11.30;99.90;;;;;;4986860;28;20026;-74
2024/03/03 09:08:54;;;;;;;12.02;6.70;;;11.30;99.90;;;;;;4998137;28;20472;-74
2024/03/03 09:11:22;;;;;;;11.05;7.35;;;11.30;99.90;;;;;;4984125;28;20031;-74
2024/03/03 09:13:48;;;;;;;8.63;5.90;;;11.30;99.90;;;;;;4982439;28;20049;-74
2024/03/03 09:16:13;;;;;;;12.95;7.15;;;11.30;99.90;;;;;;4960934;28;20057;-74
2024/03/03 09:18:39;;;;;;;11.98;7.88;;;11.30;99.90;;;;;;4986439;28;20372;-74
2024/03/03 09:21:08;;;;;;;12.02;7.38;;;11.30;99.90;;;;;;4984185;28;20137;-74
2024/03/03 09:23:34;;;;;;;11.05;7.32;;;11.40;99.90;;;;;;4984712;28;20041;-75
2024/03/03 09:26:00;;;;;;;11.93;7.85;;;11.40;99.90;;;;;;4986370;28;20480;-75
2024/03/03 09:28:26;;;;;;;10.95;7.57;;;11.50;99.90;;;;;;4968637;28;20034;-75
2024/03/03 09:30:52;;;;;;;11.50;7.45;;;11.50;99.90;;;;;;4986227;28;20029;-75
2024/03/03 09:33:18;;;;;;;12.85;7.55;;;11.60;99.90;;;;;;4969107;28;20614;-75
2024/03/03 09:35:43;;;;;;;11.90;6.75;;;11.60;99.90;;;;;;4986481;28;20057;-74
2024/03/03 09:38:09;;;;;;;11.30;8.10;;;11.70;99.90;;;;;;4973839;28;20222;-75
2024/03/03 09:40:36;;;;;;;12.60;7.72;;;11.80;99.90;;;;;;4983856;28;20034;-74
2024/03/03 09:43:03;;;;;;;12.32;7.43;;;11.90;99.90;;;;;;4986932;28;20022;-75
2024/03/03 09:45:30;;;;;;;13.63;8.38;;;11.90;99.90;;;;;;4987546;28;20489;-75
2024/03/03 09:47:59;;;;;;;12.27;7.68;;;12.00;99.90;;;;;;4983029;28;20023;-76
2024/03/03 09:50:26;;;;;;;15.05;8.27;;;12.00;99.90;;;;;;4969130;28;20049;-75
2024/03/03 09:52:56;;;;;;;17.25;8.25;;;12.10;99.90;;;;;;4969047;28;20030;-75
2024/03/03 09:55:24;;;;;;;14.50;9.32;;;12.10;99.90;;;;;;4968673;28;20077;-75
2024/03/03 09:57:50;;;;;;;13.30;8.95;;;12.20;99.90;;;;;;4968920;28;20031;-75
2024/03/03 10:00:16;;;;;;;12.25;8.35;;;12.20;99.90;;;;;;4986224;28;20057;-75
2024/03/03 10:02:42;;;;;;;13.70;8.80;;;12.30;99.90;;;;;;4995721;28;20023;-74
2024/03/03 10:05:09;;;;;;;12.60;8.57;;;12.40;99.90;;;;;;4968576;28;20542;-75
2024/03/03 10:07:47;;;;;;;14.13;8.63;;;12.60;99.90;;;;;;4986885;28;20488;-75
2024/03/03 10:10:21;;;;;;;10.82;8.02;;;12.70;99.90;;;;;;4973465;28;20067;-75
2024/03/03 10:12:48;;;;;;;13.48;8.45;;;12.90;99.90;;;;;;4986537;28;20026;-75
2024/03/03 10:15:15;;;;;;;13.70;8.32;;;13.10;99.90;;;;;;4985347;28;20030;-75
2024/03/03 10:17:41;;;;;;;11.52;8.18;;;13.20;99.90;;;;;;4992740;28;20065;-74
2024/03/03 10:20:08;;;;;;;14.77;8.55;;;13.30;99.90;;;;;;4986070;28;20471;-75
2024/03/03 10:22:34;;;;;;;13.63;9.05;;;13.40;99.90;;;;;;4986210;28;20068;-75
2024/03/03 10:25:10;;;;;;;14.13;9.00;;;13.50;99.90;;;;;;4985572;28;20084;-75
2024/03/03 10:27:41;;;;;;;11.82;8.48;;;13.60;99.90;;;;;;4986423;28;20030;-75
2024/03/03 10:30:09;;;;;;;12.93;7.72;;;13.60;99.90;;;;;;4971029;28;20113;-75
2024/03/03 10:32:42;;;;;;;11.68;7.88;;;13.70;99.90;;;;;;4984339;28;20539;-75
2024/03/03 10:35:13;;;;;;;13.75;8.57;;;13.80;99.90;;;;;;4963238;28;20376;-76
2024/03/03 10:37:52;;;;;;;11.40;7.63;;;14.00;99.90;;;;;;4972054;28;20498;-76
2024/03/03 10:40:20;;;;;;;13.52;7.63;;;14.10;99.90;;;;;;4974006;28;20427;-76
2024/03/03 10:42:46;;;;;;;12.65;8.35;;;14.20;99.90;;;;;;4984077;28;20034;-76
2024/03/03 10:45:11;;;;;;;10.70;7.47;;;14.30;99.90;;;;;;4985888;28;20026;-75
2024/03/03 10:47:37;;;;;;;10.27;7.10;;;14.40;99.90;;;;;;4984086;28;20105;-76
2024/03/03 10:50:08;;;;;;;11.50;7.20;;;14.50;99.90;;;;;;4986272;28;20488;-75
2024/03/03 10:52:39;;;;;;;10.65;7.30;;;14.60;99.90;;;;;;4966617;28;20730;-77
2024/03/03 10:57:45;;;;;;;12.00;7.43;;;14.70;99.90;;;;;;5018728;23;20084;-86
2024/03/03 11:00:22;;;;;;;11.38;6.40;;;14.70;99.90;;;;;;4990532;28;20037;-90
2024/03/03 11:02:50;;;;;;;14.25;7.82;;;14.70;99.90;;;;;;5008609;28;20026;-86
2024/03/03 11:05:16;;;;;;;12.10;7.95;;;14.80;99.90;;;;;;5012316;28;20068;-86
2024/03/03 11:07:43;;;;;;;12.13;7.18;;;14.90;99.90;;;;;;5012012;28;20417;-88
2024/03/03 11:10:09;;;;;;;12.52;8.05;;;14.90;99.90;;;;;;5014289;28;20072;-87
2024/03/03 11:12:37;;;;;;;11.80;7.22;;;15.00;99.90;;;;;;4995703;28;20018;-87
2024/03/03 11:15:07;;;;;;;10.13;7.45;;;15.00;99.90;;;;;;5011708;28;20101;-87
2024/03/03 11:17:38;;;;;;;9.98;6.55;;;15.20;99.90;;;;;;5010189;28;20045;-89
2024/03/03 11:20:10;;;;;;;13.00;7.80;;;15.20;99.90;;;;;;4995244;28;20038;-86
2024/03/03 11:22:41;;;;;;;13.20;6.82;;;15.30;99.90;;;;;;4993513;28;20029;-85
2024/03/03 11:25:09;;;;;;;;;;;15.40;99.90;;;;;;4976970;28;20031;-90
2024/03/03 11:27:38;;;;;;;10.23;7.00;;;15.40;99.90;;;;;;4984179;28;20248;-87
2024/03/03 11:30:08;;;;;;;12.10;7.43;;;15.50;99.90;;;;;;4974640;28;20030;-87
2024/03/03 11:32:36;;;;;;;12.70;7.50;;;15.60;99.90;;;;;;4994629;28;20065;-87
2024/03/03 11:35:03;;;;;;;8.90;6.20;;;15.70;99.90;;;;;;4978559;28;20034;-91
2024/03/03 11:37:31;;;;;;;9.23;6.53;;;15.80;99.90;;;;;;4977659;28;20099;-93
2024/03/03 11:39:57;;;;;;;11.70;7.07;;;16.00;99.90;;;;;;5005639;28;20461;-90
2024/03/03 11:42:34;;;;;;;10.98;6.50;;;16.10;99.90;;;;;;4989819;28;20069;-91
2024/03/03 11:45:01;;;;;;;9.40;5.50;;;16.20;99.90;;;;;;4988270;28;20022;-89
2024/03/03 11:47:37;;;;;;;10.10;6.28;;;16.40;99.90;;;;;;4978637;28;20029;-93
2024/03/03 11:50:20;;;;;;;9.02;5.43;;;16.50;99.90;;;;;;5013101;28;20038;-92
2024/03/03 11:52:47;;;;;;;7.78;4.53;;;16.60;99.90;;;;;;4990785;28;20054;-93
2024/03/03 11:55:24;;;;;;;8.73;5.10;;;16.70;99.90;;;;;;4978918;28;20188;-94
2024/03/03 11:57:51;;;;;;;7.35;4.43;;;16.80;99.90;;;;;;4969413;28;20129;-92
2024/03/03 12:00:18;;;;;;;8.23;4.80;;;16.90;99.90;;;;;;4994041;28;20023;-93
2024/03/03 12:02:45;;;;;;;6.75;3.90;;;17.00;99.90;;;;;;4976655;28;20476;-93
2024/03/03 12:05:15;;;;;;;5.68;3.65;;;17.10;99.90;;;;;;5004171;28;20019;-92
2024/03/03 12:07:48;;;;;;;7.10;4.35;;;17.20;99.90;;;;;;4996781;28;20049;-92
2024/03/03 12:10:30;;;;;;;7.15;4.30;;;17.30;99.90;;;;;;4995944;28;20025;-91
2024/03/03 12:13:04;;;;;;;7.88;4.78;;;17.30;99.90;;;;;;4974071;28;20086;-91
2024/03/03 12:15:30;;;;;;;9.60;5.05;;;17.30;99.90;;;;;;4991051;28;20400;-92
2024/03/03 12:17:58;;;;;;;6.20;4.47;;;17.40;99.90;;;;;;4986604;28;20046;-92
2024/03/03 12:20:25;;;;;;;6.82;4.10;;;17.40;99.90;;;;;;4982041;28;20480;-94
2024/03/03 12:22:52;;;;;;;8.43;4.75;;;17.50;99.90;;;;;;4962623;28;20029;-93
2024/03/03 12:25:19;;;;;;;8.20;4.35;;;17.60;99.90;;;;;;5003476;28;20019;-92
2024/03/03 12:27:53;;;;;;;7.22;4.32;;;17.60;99.90;;;;;;4976325;28;20018;-92
2024/03/03 12:30:21;;;;;;;5.75;3.80;;;17.70;99.90;;;;;;5000096;28;20496;-93
2024/03/03 12:32:48;;;;;;;5.68;3.08;;;17.70;99.90;;;;;;4997002;28;20090;-91
2024/03/03 12:35:13;;;;;;;5.55;2.55;;;17.80;99.90;;;;;;4977162;28;20491;-91
2024/03/03 12:37:39;;;;;;;6.75;3.80;;;17.80;99.90;;;;;;4973801;28;20037;-91
2024/03/03 12:40:06;;;;;;;7.15;3.42;;;17.80;99.90;;;;;;4991210;28;20401;-94
2024/03/03 12:42:33;;;;;;;8.32;4.22;;;17.70;99.90;;;;;;4995430;28;20025;-95
2024/03/03 12:45:05;;;;;;;6.82;3.00;;;17.70;99.90;;;;;;4974575;28;20046;-94
2024/03/03 12:47:31;;;;;;;13.88;4.13;;;17.80;99.90;;;;;;4991102;28;20028;-95